createdAt,value
2022-12-17T00:02:46.167Z,84.19
2022-12-17T00:05:50.781Z,83.52
2022-12-17T00:08:58.566Z,83.57
2022-12-17T00:12:20.988Z,82.95
2022-12-17T00:15:25.957Z,83.15
2022-12-17T00:18:30.684Z,83.06
2022-12-17T00:21:35.441Z,83.56
2022-12-17T00:24:39.331Z,83.17
2022-12-17T00:27:43.223Z,83.40
2022-12-17T00:31:00.328Z,83.26
2022-12-17T00:34:05.232Z,83.84
2022-12-17T00:37:09.271Z,84.17
2022-12-17T00:40:13.134Z,83.74
2022-12-17T00:43:26.217Z,84.07
2022-12-17T00:46:30.516Z,84.77
2022-12-17T00:49:34.534Z,84.38
2022-12-17T00:52:38.274Z,84.76
2022-12-17T00:55:42.149Z,84.61
2022-12-17T00:58:46.279Z,84.93
2022-12-17T01:01:50.546Z,85.08
2022-12-17T01:04:55.378Z,85.53
2022-12-17T01:08:01.158Z,86.03
2022-12-17T01:11:05.911Z,86.08
2022-12-17T01:14:10.508Z,85.43
2022-12-17T01:17:14.700Z,85.77
2022-12-17T01:20:18.119Z,85.88
2022-12-17T01:23:21.854Z,86.33
2022-12-17T01:26:25.625Z,86.60
2022-12-17T01:29:29.582Z,86.54
2022-12-17T01:32:33.436Z,86.02
2022-12-17T01:35:39.051Z,85.93
2022-12-17T01:38:42.691Z,85.87
2022-12-17T01:41:48.617Z,85.93
2022-12-17T01:45:06.775Z,85.61
2022-12-17T01:48:22.444Z,85.66
2022-12-17T01:51:26.264Z,85.34
2022-12-17T01:54:30.691Z,85.91
2022-12-17T01:57:34.374Z,86.19
2022-12-17T02:00:39.372Z,85.88
2022-12-17T02:03:44.285Z,85.82
2022-12-17T02:06:56.642Z,85.89
2022-12-17T02:10:30.410Z,85.35
2022-12-17T02:13:57.768Z,84.30
2022-12-17T02:17:09.309Z,86.21
2022-12-17T02:20:32.813Z,83.98
2022-12-17T02:23:56.537Z,84.54
2022-12-17T02:27:04.581Z,84.48
2022-12-17T02:30:13.531Z,84.54
2022-12-17T02:33:18.277Z,84.81
2022-12-17T02:36:24.994Z,85.54
2022-12-17T02:39:29.050Z,85.55
2022-12-17T02:42:34.890Z,86.02
2022-12-17T02:45:40.154Z,85.50
2022-12-17T02:48:44.563Z,85.20
2022-12-17T02:51:48.762Z,85.32
2022-12-17T02:54:52.868Z,85.65
2022-12-17T02:57:57.105Z,85.38
2022-12-17T03:01:04.740Z,85.82
2022-12-17T03:04:08.531Z,85.44
2022-12-17T03:07:12.290Z,85.91
2022-12-17T03:10:18.269Z,85.61
2022-12-17T03:13:22.575Z,85.36
2022-12-17T03:16:35.749Z,85.20
2022-12-17T03:19:41.209Z,85.29
2022-12-17T03:22:44.851Z,84.94
2022-12-17T03:25:49.024Z,84.74
2022-12-17T03:28:52.841Z,85.17
2022-12-17T03:31:56.548Z,85.57
2022-12-17T03:35:00.504Z,85.12
2022-12-17T03:38:04.422Z,85.33
2022-12-17T03:41:11.253Z,85.35
2022-12-17T03:44:15.086Z,85.38
2022-12-17T03:47:20.512Z,85.59
2022-12-17T03:50:24.936Z,85.92
2022-12-17T03:53:28.651Z,85.91
2022-12-17T03:56:32.522Z,85.71
2022-12-17T03:59:36.462Z,85.76
2022-12-17T04:02:40.693Z,86.32
2022-12-17T04:05:49.453Z,86.26
2022-12-17T04:08:53.719Z,86.66
2022-12-17T04:11:57.646Z,86.13
2022-12-17T04:15:01.535Z,86.27
2022-12-17T04:18:05.476Z,85.52
2022-12-17T04:21:09.416Z,85.96
2022-12-17T04:24:13.216Z,85.71
2022-12-17T04:27:17.081Z,85.67
2022-12-17T04:30:20.733Z,85.70
2022-12-17T04:33:24.501Z,85.76
2022-12-17T04:36:28.516Z,86.55
2022-12-17T04:39:32.250Z,87.18
2022-12-17T04:42:36.159Z,86.57
2022-12-17T04:45:40.273Z,86.69
2022-12-17T04:48:44.003Z,86.46
2022-12-17T04:51:47.794Z,85.99
2022-12-17T04:54:51.682Z,85.09
2022-12-17T04:57:55.450Z,84.54
2022-12-17T05:00:59.188Z,84.71
2022-12-17T05:04:03.064Z,84.27
2022-12-17T05:07:06.777Z,84.13
2022-12-17T05:10:10.638Z,83.20
2022-12-17T05:13:18.591Z,83.71
2022-12-17T05:16:22.373Z,83.11
2022-12-17T05:19:26.317Z,82.58
2022-12-17T05:22:32.889Z,82.21
2022-12-17T05:25:37.679Z,82.29
2022-12-17T05:28:41.656Z,82.40
2022-12-17T05:32:05.327Z,82.66
2022-12-17T05:35:09.016Z,83.06
2022-12-17T05:38:12.779Z,83.55
2022-12-17T05:41:18.092Z,84.42
2022-12-17T05:44:21.918Z,84.60
2022-12-17T05:47:25.756Z,83.20
2022-12-17T05:50:29.424Z,82.87
2022-12-17T05:53:34.448Z,82.42
2022-12-17T05:56:38.448Z,82.09
2022-12-17T05:59:42.136Z,82.23
2022-12-17T06:02:46.156Z,82.37
2022-12-17T06:05:50.270Z,82.76
2022-12-17T06:08:54.116Z,83.67
2022-12-17T06:12:02.370Z,84.15
2022-12-17T06:15:06.960Z,83.40
2022-12-17T06:18:16.469Z,83.34
2022-12-17T06:21:37.481Z,83.08
2022-12-17T06:24:45.746Z,83.27
2022-12-17T06:27:49.905Z,83.09
2022-12-17T06:30:53.539Z,83.45
2022-12-17T06:33:58.078Z,83.67
2022-12-17T06:37:01.770Z,83.14
2022-12-17T06:40:05.898Z,82.72
2022-12-17T06:43:13.842Z,82.81
2022-12-17T06:46:17.708Z,81.55
2022-12-17T06:49:21.204Z,81.52
2022-12-17T06:52:25.122Z,82.23
2022-12-17T06:55:28.782Z,82.63
2022-12-17T06:58:32.639Z,82.11
2022-12-17T07:01:36.598Z,82.03
2022-12-17T07:04:40.803Z,81.98
2022-12-17T07:07:44.595Z,81.34
2022-12-17T07:10:48.461Z,81.72
2022-12-17T07:13:52.305Z,81.07
2022-12-17T07:16:56.100Z,80.91
2022-12-17T07:19:59.933Z,80.68
2022-12-17T07:23:03.812Z,80.58
2022-12-17T07:26:07.692Z,80.86
2022-12-17T07:29:11.359Z,80.81
2022-12-17T07:32:15.129Z,81.33
2022-12-17T07:35:19.031Z,81.50
2022-12-17T07:38:24.035Z,81.21
2022-12-17T07:41:28.139Z,81.19
2022-12-17T07:44:31.880Z,81.04
2022-12-17T07:47:35.750Z,80.52
2022-12-17T07:50:39.476Z,80.57
2022-12-17T07:53:43.507Z,80.26
2022-12-17T07:56:47.414Z,79.68
2022-12-17T07:59:51.349Z,79.22
2022-12-17T08:02:55.320Z,79.60
2022-12-17T08:05:59.055Z,79.60
2022-12-17T08:09:02.864Z,79.26
2022-12-17T08:12:06.543Z,78.95
2022-12-17T08:15:10.365Z,79.35
2022-12-17T08:18:26.430Z,80.47
2022-12-17T08:21:31.357Z,80.59
2022-12-17T08:24:35.345Z,81.27
2022-12-17T08:27:39.242Z,81.64
2022-12-17T08:30:43.102Z,81.75
2022-12-17T08:33:46.804Z,82.04
2022-12-17T08:36:50.813Z,81.13
2022-12-17T08:39:54.567Z,81.11
2022-12-17T08:42:58.581Z,81.45
2022-12-17T08:46:09.498Z,81.04
2022-12-17T08:49:12.997Z,80.89
2022-12-17T08:52:16.929Z,80.25
2022-12-17T08:55:20.847Z,80.39
2022-12-17T08:58:24.761Z,80.46
2022-12-17T09:01:28.771Z,79.26
2022-12-17T09:04:33.071Z,78.84
2022-12-17T09:07:36.869Z,78.86
2022-12-17T09:10:40.831Z,78.16
2022-12-17T09:13:44.550Z,77.48
2022-12-17T09:16:48.547Z,77.16
2022-12-17T09:19:52.442Z,77.70
2022-12-17T09:22:56.491Z,77.60
2022-12-17T09:26:00.226Z,77.18
2022-12-17T09:29:04.131Z,77.09
2022-12-17T09:32:07.941Z,77.42
2022-12-17T09:35:11.780Z,76.98
2022-12-17T09:38:16.197Z,76.59
2022-12-17T09:41:59.721Z,76.14
2022-12-17T09:45:17.014Z,76.15
2022-12-17T09:48:32.263Z,75.99
2022-12-17T09:51:47.582Z,75.40
2022-12-17T09:55:07.102Z,75.16
2022-12-17T09:58:10.875Z,75.07
2022-12-17T10:01:15.460Z,74.23
2022-12-17T10:04:20.157Z,74.81
2022-12-17T10:07:39.526Z,74.79
2022-12-17T10:10:45.606Z,74.62
2022-12-17T10:13:49.572Z,74.54
2022-12-17T10:17:05.867Z,74.31
2022-12-17T10:20:13.620Z,75.09
2022-12-17T10:23:17.463Z,76.52
2022-12-17T10:26:25.422Z,77.08
2022-12-17T10:29:34.320Z,77.78
2022-12-17T10:32:41.723Z,77.44
2022-12-17T10:35:54.567Z,77.04
2022-12-17T10:38:58.905Z,76.58
2022-12-17T10:42:02.606Z,76.70
2022-12-17T10:45:06.491Z,76.38
2022-12-17T10:48:10.332Z,75.99
2022-12-17T10:51:14.209Z,76.57
2022-12-17T10:54:27.738Z,75.91
2022-12-17T10:57:54.351Z,76.46
2022-12-17T11:00:59.239Z,76.77
2022-12-17T11:04:17.418Z,76.44
2022-12-17T11:07:21.986Z,75.94
2022-12-17T11:10:33.926Z,75.33
2022-12-17T11:13:50.276Z,75.23
2022-12-17T11:17:00.858Z,74.74
2022-12-17T11:20:10.877Z,73.93
2022-12-17T11:23:17.867Z,73.79
2022-12-17T11:26:29.214Z,73.95
2022-12-17T11:29:32.956Z,74.21
2022-12-17T11:32:43.010Z,73.97
2022-12-17T11:35:51.249Z,73.84
2022-12-17T11:39:03.919Z,74.06
2022-12-17T11:42:38.693Z,74.43
2022-12-17T11:45:50.084Z,73.97
2022-12-17T11:49:01.709Z,73.97
2022-12-17T11:52:18.247Z,73.99
2022-12-17T11:55:40.853Z,74.43
2022-12-17T11:59:04.416Z,75.35
2022-12-17T12:02:50.734Z,75.46
2022-12-17T12:05:56.885Z,75.16
2022-12-17T12:09:28.437Z,75.19
2022-12-17T12:12:49.000Z,75.47
2022-12-17T12:16:14.751Z,75.12
2022-12-17T12:19:33.704Z,75.39
2022-12-17T12:23:15.835Z,75.78
2022-12-17T12:26:19.411Z,76.36
2022-12-17T12:29:35.655Z,77.01
2022-12-17T12:33:04.354Z,76.30
2022-12-17T12:36:18.876Z,75.74
2022-12-17T12:39:28.882Z,75.62
2022-12-17T12:43:24.062Z,75.43
2022-12-17T12:46:36.588Z,74.35
2022-12-17T12:50:02.133Z,74.93
2022-12-17T12:53:06.451Z,76.11
2022-12-17T12:56:10.254Z,77.10
2022-12-17T12:59:14.057Z,77.37
2022-12-17T13:02:18.181Z,76.98
2022-12-17T13:05:22.788Z,76.82
2022-12-17T13:08:07.856Z,75.90
2022-12-17T13:10:54.412Z,75.88
2022-12-17T13:13:55.900Z,75.72
2022-12-17T13:16:47.757Z,75.71
2022-12-17T13:19:39.518Z,75.52
2022-12-17T13:22:28.570Z,75.24
2022-12-17T13:25:23.310Z,75.05
2022-12-17T13:28:29.163Z,75.98
2022-12-17T13:31:26.128Z,75.87
2022-12-17T13:34:16.174Z,75.83
2022-12-17T13:37:19.881Z,75.89
2022-12-17T13:40:54.598Z,76.30
2022-12-17T13:43:46.597Z,97.86
2022-12-17T13:46:46.944Z,99.64
2022-12-17T13:49:32.795Z,87.92
2022-12-17T13:52:20.723Z,79.76
2022-12-17T13:55:16.643Z,77.68
2022-12-17T13:58:01.998Z,76.79
2022-12-17T14:00:47.501Z,76.04
2022-12-17T14:03:57.070Z,76.43
2022-12-17T14:06:38.616Z,76.13
2022-12-17T14:09:32.025Z,76.63
2022-12-17T14:12:24.999Z,76.59
2022-12-17T14:15:22.607Z,77.06
2022-12-17T14:18:15.904Z,77.00
2022-12-17T14:21:01.223Z,76.74
2022-12-17T14:24:01.347Z,76.47
2022-12-17T14:26:51.142Z,76.66
2022-12-17T14:29:46.619Z,76.74
2022-12-17T14:32:36.845Z,76.92
2022-12-17T14:35:34.852Z,77.25
2022-12-17T14:38:36.981Z,77.48
2022-12-17T14:41:42.570Z,77.97
2022-12-17T14:44:30.181Z,78.36
2022-12-17T14:47:23.786Z,78.39
2022-12-17T14:50:14.182Z,77.68
2022-12-17T14:53:02.586Z,77.45
2022-12-17T14:56:00.107Z,77.54
2022-12-17T14:58:45.867Z,77.54
2022-12-17T15:01:32.408Z,77.74
2022-12-17T15:04:20.909Z,77.72
2022-12-17T15:07:10.957Z,77.51
2022-12-17T15:10:00.094Z,77.03
2022-12-17T15:12:45.705Z,77.14
2022-12-17T15:15:30.945Z,77.00
2022-12-17T15:18:19.748Z,76.58
2022-12-17T15:21:05.666Z,76.85
2022-12-17T15:23:51.205Z,76.90
2022-12-17T15:26:38.980Z,76.80
2022-12-17T15:29:27.014Z,77.10
2022-12-17T15:32:21.234Z,76.87
2022-12-17T15:35:07.496Z,76.61
2022-12-17T15:37:52.907Z,76.53
2022-12-17T15:40:39.160Z,77.07
2022-12-17T15:43:24.311Z,77.50
2022-12-17T15:46:10.693Z,77.61
2022-12-17T15:48:56.667Z,78.00
2022-12-17T15:51:41.793Z,78.30
2022-12-17T15:54:27.190Z,78.05
2022-12-17T15:57:18.491Z,78.18
2022-12-17T16:00:08.045Z,77.97
2022-12-17T16:02:55.592Z,77.29
2022-12-17T16:05:45.035Z,77.23
2022-12-17T16:08:30.454Z,77.00
2022-12-17T16:11:16.077Z,76.29
2022-12-17T16:14:01.545Z,76.59
2022-12-17T16:16:47.061Z,76.57
2022-12-17T16:19:32.186Z,76.81
2022-12-17T16:22:17.431Z,76.23
2022-12-17T16:25:02.833Z,76.02
2022-12-17T16:27:48.046Z,76.68
2022-12-17T16:30:33.259Z,76.56
2022-12-17T16:33:19.215Z,77.07
2022-12-17T16:36:07.026Z,77.04
2022-12-17T16:38:54.613Z,76.40
2022-12-17T16:41:40.003Z,76.33
2022-12-17T16:44:25.426Z,76.87
2022-12-17T16:47:10.953Z,77.13
2022-12-17T16:49:56.569Z,76.87
2022-12-17T16:52:42.022Z,77.51
2022-12-17T16:55:27.271Z,77.42
2022-12-17T16:58:13.304Z,77.57
2022-12-17T17:00:58.455Z,78.27
2022-12-17T17:03:43.875Z,78.10
2022-12-17T17:06:33.590Z,77.91
2022-12-17T17:09:20.203Z,78.45
2022-12-17T17:12:05.935Z,78.24
2022-12-17T17:14:51.049Z,77.87
2022-12-17T17:17:55.922Z,78.06
2022-12-17T17:20:42.089Z,77.97
2022-12-17T17:23:27.402Z,77.86
2022-12-17T17:26:13.706Z,77.49
2022-12-17T17:28:59.883Z,78.39
2022-12-17T17:34:50.808Z,78.79
2022-12-17T17:37:35.919Z,78.55
2022-12-17T17:40:21.450Z,78.26
2022-12-17T17:43:06.635Z,78.76
2022-12-17T17:45:53.035Z,78.93
2022-12-17T17:48:38.701Z,78.39
2022-12-17T17:52:07.226Z,78.42
2022-12-17T17:54:35.642Z,78.51
2022-12-17T17:57:20.794Z,78.52
2022-12-17T18:00:06.700Z,78.67
2022-12-17T18:02:52.024Z,78.83
2022-12-17T18:05:41.751Z,78.80
2022-12-17T18:08:29.665Z,79.21
2022-12-17T18:11:22.916Z,79.13
2022-12-17T18:14:10.270Z,80.20
2022-12-17T18:16:55.420Z,81.03
2022-12-17T18:19:40.780Z,80.82
2022-12-17T18:22:28.241Z,80.00
2022-12-17T18:25:14.002Z,79.70
2022-12-17T18:28:01.863Z,80.03
2022-12-17T18:30:46.835Z,80.51
2022-12-17T18:33:31.988Z,80.52
2022-12-17T18:36:29.803Z,79.48
2022-12-17T18:39:18.075Z,78.93
2022-12-17T18:42:21.983Z,79.13
2022-12-17T18:45:07.686Z,79.11
2022-12-17T18:47:53.252Z,79.92
2022-12-17T18:50:38.351Z,79.43
2022-12-17T18:53:26.430Z,79.46
2022-12-17T18:56:19.367Z,79.97
2022-12-17T18:59:13.670Z,80.83
2022-12-17T19:01:58.988Z,80.15
2022-12-17T19:04:44.368Z,79.79
2022-12-17T19:07:29.428Z,79.81
2022-12-17T19:10:14.936Z,79.73
2022-12-17T19:12:59.987Z,79.40
2022-12-17T19:15:45.465Z,78.80
2022-12-17T19:18:31.055Z,79.09
2022-12-17T19:21:16.338Z,79.08
2022-12-17T19:24:04.327Z,79.19
2022-12-17T19:26:52.909Z,79.24
2022-12-17T19:29:38.351Z,80.18
2022-12-17T19:32:24.706Z,79.69
2022-12-17T19:35:10.182Z,79.31
2022-12-17T19:37:55.718Z,79.18
2022-12-17T19:40:41.662Z,79.95
2022-12-17T19:43:26.660Z,80.23
2022-12-17T19:46:17.507Z,79.99
2022-12-17T19:49:04.381Z,80.31
2022-12-17T19:51:49.447Z,79.92
2022-12-17T19:54:34.666Z,80.94
2022-12-17T19:57:20.337Z,80.58
2022-12-17T20:00:06.043Z,81.56
2022-12-17T20:02:58.209Z,82.24
2022-12-17T20:05:45.544Z,83.27
2022-12-17T20:08:32.152Z,81.62
2022-12-17T20:11:33.562Z,81.40
2022-12-17T20:14:21.955Z,79.99
2022-12-17T20:17:07.510Z,80.33
2022-12-17T20:19:53.745Z,80.29
2022-12-17T20:22:40.694Z,79.82
2022-12-17T20:25:25.840Z,79.40
2022-12-17T20:28:11.181Z,79.65
2022-12-17T20:30:58.035Z,79.98
2022-12-17T20:33:43.455Z,80.10
2022-12-17T20:36:29.078Z,79.73
2022-12-17T20:39:14.513Z,78.71
2022-12-17T20:41:59.696Z,80.08
2022-12-17T20:44:50.043Z,79.79
2022-12-17T20:47:38.574Z,80.11
2022-12-17T20:50:24.159Z,79.36
2022-12-17T20:53:09.375Z,79.54
2022-12-17T20:56:02.914Z,79.32
2022-12-17T20:58:51.843Z,78.94
2022-12-17T21:01:37.279Z,78.73
2022-12-17T21:04:23.221Z,78.62
2022-12-17T21:07:08.401Z,81.44
2022-12-17T21:09:53.683Z,81.71
2022-12-17T21:12:57.634Z,81.76
2022-12-17T21:15:48.906Z,80.92
2022-12-17T21:18:34.422Z,80.18
2022-12-17T21:21:23.370Z,79.90
2022-12-17T21:24:09.795Z,79.03
2022-12-17T21:26:54.980Z,79.41
2022-12-17T21:29:40.562Z,78.77
2022-12-17T21:32:31.875Z,79.31
2022-12-17T21:35:18.925Z,79.51
2022-12-17T21:38:04.268Z,79.20
2022-12-17T21:40:50.994Z,79.50
2022-12-17T21:43:37.102Z,79.43
2022-12-17T21:46:23.597Z,79.48
2022-12-17T21:49:09.804Z,78.89
2022-12-17T21:51:55.336Z,79.38
2022-12-17T21:54:40.651Z,79.47
2022-12-17T21:57:26.050Z,78.91
2022-12-17T22:00:12.079Z,79.07
2022-12-17T22:02:57.897Z,79.05
2022-12-17T22:05:43.528Z,78.59
2022-12-17T22:08:28.706Z,79.29
2022-12-17T22:11:17.029Z,79.34
2022-12-17T22:14:13.809Z,78.80
2022-12-17T22:17:02.527Z,79.16
2022-12-17T22:19:48.137Z,78.69
2022-12-17T22:22:33.327Z,78.27
2022-12-17T22:25:18.935Z,79.00
2022-12-17T22:28:04.930Z,78.46
2022-12-17T22:31:08.887Z,79.13
2022-12-17T22:34:16.941Z,78.95
2022-12-17T22:39:28.093Z,78.90
2022-12-17T22:44:30.302Z,79.38
2022-12-17T22:44:45.255Z,78.99
2022-12-17T22:46:34.942Z,78.53
2022-12-17T22:49:20.089Z,78.18
2022-12-17T22:52:05.403Z,78.72
2022-12-17T22:54:51.139Z,78.22
2022-12-17T22:57:38.497Z,78.15
2022-12-17T23:00:28.905Z,78.55
2022-12-17T23:03:14.542Z,78.05
2022-12-17T23:06:15.718Z,78.45
2022-12-17T23:09:01.227Z,78.83
2022-12-17T23:11:48.011Z,78.34
2022-12-17T23:14:33.134Z,78.60
2022-12-17T23:17:18.580Z,78.82
2022-12-17T23:20:04.110Z,79.41
2022-12-17T23:22:49.988Z,80.48
2022-12-17T23:25:35.532Z,79.37
2022-12-17T23:28:23.695Z,79.49
2022-12-17T23:31:18.965Z,78.99
2022-12-17T23:34:04.849Z,78.44
2022-12-17T23:36:50.446Z,78.25
2022-12-17T23:39:37.629Z,77.33
2022-12-17T23:42:22.928Z,77.54
2022-12-17T23:45:10.947Z,77.60
2022-12-17T23:47:57.409Z,77.86
2022-12-17T23:50:42.631Z,78.43
2022-12-17T23:53:28.918Z,78.51
2022-12-17T23:56:21.050Z,78.26
2022-12-17T23:59:06.518Z,77.94
